sensor_id;sensor_type;location;lat;lon;timestamp;pressure;altitude;pressure_sealevel;temperature;humidity
70833;BME280;58452;59.418;17.962;2023-05-11T00:00:29;101912.56;;;10.45;47.46
70833;BME280;58452;59.418;17.962;2023-05-11T00:02:54;101919.34;;;10.46;47.92
70833;BME280;58452;59.418;17.962;2023-05-11T00:05:20;101915.34;;;10.42;47.86
70833;BME280;58452;59.418;17.962;2023-05-11T00:07:45;101909.72;;;10.37;48.17
70833;BME280;58452;59.418;17.962;2023-05-11T00:10:10;101920.13;;;10.36;48.41
70833;BME280;58452;59.418;17.962;2023-05-11T00:12:36;101912.72;;;10.31;48.05
70833;BME280;58452;59.418;17.962;2023-05-11T00:15:02;101908.84;;;10.25;48.44
70833;BME280;58452;59.418;17.962;2023-05-11T00:17:27;101916.69;;;10.24;48.51
70833;BME280;58452;59.418;17.962;2023-05-11T00:19:53;101921.47;;;10.17;48.47
70833;BME280;58452;59.418;17.962;2023-05-11T00:22:18;101916.81;;;10.10;48.91
70833;BME280;58452;59.418;17.962;2023-05-11T00:24:44;101920.66;;;10.04;49.04
70833;BME280;58452;59.418;17.962;2023-05-11T00:27:09;101915.13;;;9.98;49.21
70833;BME280;58452;59.418;17.962;2023-05-11T00:29:34;101918.34;;;9.89;49.54
70833;BME280;58452;59.418;17.962;2023-05-11T00:32:00;101915.16;;;9.85;49.62
70833;BME280;58452;59.418;17.962;2023-05-11T00:34:25;101913.34;;;9.74;50.10
70833;BME280;58452;59.418;17.962;2023-05-11T00:36:51;101915.19;;;9.72;49.52
70833;BME280;58452;59.418;17.962;2023-05-11T00:39:17;101907.78;;;9.68;49.88
70833;BME280;58452;59.418;17.962;2023-05-11T00:41:43;101913.34;;;9.62;49.91
70833;BME280;58452;59.418;17.962;2023-05-11T00:44:09;101920.00;;;9.53;50.59
70833;BME280;58452;59.418;17.962;2023-05-11T00:46:35;101923.69;;;9.49;50.69
70833;BME280;58452;59.418;17.962;2023-05-11T00:49:01;101907.84;;;9.43;50.33
70833;BME280;58452;59.418;17.962;2023-05-11T00:51:27;101920.81;;;9.41;50.70
70833;BME280;58452;59.418;17.962;2023-05-11T00:53:52;101919.47;;;9.36;50.73
70833;BME280;58452;59.418;17.962;2023-05-11T00:56:18;101901.25;;;9.26;51.00
70833;BME280;58452;59.418;17.962;2023-05-11T00:58:44;101914.97;;;9.26;51.12
70833;BME280;58452;59.418;17.962;2023-05-11T01:01:10;101908.28;;;9.24;51.12
70833;BME280;58452;59.418;17.962;2023-05-11T01:03:35;101901.91;;;9.17;50.96
70833;BME280;58452;59.418;17.962;2023-05-11T01:06:16;101921.16;;;9.24;51.01
70833;BME280;58452;59.418;17.962;2023-05-11T01:13:49;101934.19;;;8.70;52.34
70833;BME280;58452;59.418;17.962;2023-05-11T01:16:21;101923.63;;;8.88;52.14
70833;BME280;58452;59.418;17.962;2023-05-11T01:18:57;101928.56;;;9.03;51.75
70833;BME280;58452;59.418;17.962;2023-05-11T01:21:29;101923.31;;;9.05;52.03
70833;BME280;58452;59.418;17.962;2023-05-11T01:26:44;101928.78;;;9.13;51.47
70833;BME280;58452;59.418;17.962;2023-05-11T01:32:09;101926.22;;;9.13;51.60
70833;BME280;58452;59.418;17.962;2023-05-11T01:34:39;101924.75;;;9.09;51.59
70833;BME280;58452;59.418;17.962;2023-05-11T01:37:10;101926.59;;;9.07;51.87
70833;BME280;58452;59.418;17.962;2023-05-11T01:39:51;101927.03;;;9.01;51.52
70833;BME280;58452;59.418;17.962;2023-05-11T01:42:20;101928.16;;;8.97;51.57
70833;BME280;58452;59.418;17.962;2023-05-11T01:44:50;101924.53;;;8.87;52.36
70833;BME280;58452;59.418;17.962;2023-05-11T01:47:20;101929.78;;;8.85;52.07
70833;BME280;58452;59.418;17.962;2023-05-11T01:49:47;101926.59;;;8.81;52.44
70833;BME280;58452;59.418;17.962;2023-05-11T01:52:15;101921.84;;;8.75;52.16
70833;BME280;58452;59.418;17.962;2023-05-11T01:54:42;101925.53;;;8.71;52.21
70833;BME280;58452;59.418;17.962;2023-05-11T01:57:11;101930.34;;;8.63;52.94
70833;BME280;58452;59.418;17.962;2023-05-11T01:59:39;101935.72;;;8.60;52.72
70833;BME280;58452;59.418;17.962;2023-05-11T02:02:05;101931.06;;;8.53;52.40
70833;BME280;58452;59.418;17.962;2023-05-11T02:04:34;101933.91;;;8.48;52.90
70833;BME280;58452;59.418;17.962;2023-05-11T02:07:01;101929.38;;;8.39;53.02
70833;BME280;58452;59.418;17.962;2023-05-11T02:09:29;101933.06;;;8.35;53.19
70833;BME280;58452;59.418;17.962;2023-05-11T02:11:56;101937.78;;;8.28;53.81
70833;BME280;58452;59.418;17.962;2023-05-11T02:14:23;101934.22;;;8.17;53.61
70833;BME280;58452;59.418;17.962;2023-05-11T02:16:50;101948.81;;;8.16;54.01
70833;BME280;58452;59.418;17.962;2023-05-11T02:19:17;101947.53;;;8.09;53.94
70833;BME280;58452;59.418;17.962;2023-05-11T02:21:45;101951.31;;;8.04;54.24
70833;BME280;58452;59.418;17.962;2023-05-11T02:24:11;101952.44;;;8.00;54.42
70833;BME280;58452;59.418;17.962;2023-05-11T02:26:36;101946.19;;;7.90;54.02
70833;BME280;58452;59.418;17.962;2023-05-11T02:29:02;101938.13;;;7.81;54.97
70833;BME280;58452;59.418;17.962;2023-05-11T02:31:28;101944.94;;;7.82;54.96
70833;BME280;58452;59.418;17.962;2023-05-11T02:33:59;101954.84;;;7.74;55.01
70833;BME280;58452;59.418;17.962;2023-05-11T02:36:28;101954.19;;;7.71;55.12
70833;BME280;58452;59.418;17.962;2023-05-11T02:39:01;101953.56;;;7.67;54.95
70833;BME280;58452;59.418;17.962;2023-05-11T02:41:29;101946.25;;;7.61;54.98
70833;BME280;58452;59.418;17.962;2023-05-11T02:44:00;101960.00;;;7.60;55.29
70833;BME280;58452;59.418;17.962;2023-05-11T02:46:29;101923.59;;;7.40;56.24
70833;BME280;58452;59.418;17.962;2023-05-11T02:48:57;101947.16;;;7.46;55.99
70833;BME280;58452;59.418;17.962;2023-05-11T02:51:36;101954.16;;;7.44;56.20
70833;BME280;58452;59.418;17.962;2023-05-11T02:54:05;101954.59;;;7.36;56.34
70833;BME280;58452;59.418;17.962;2023-05-11T02:56:31;101958.97;;;7.34;56.77
70833;BME280;58452;59.418;17.962;2023-05-11T02:58:57;101946.44;;;7.30;56.45
70833;BME280;58452;59.418;17.962;2023-05-11T03:01:23;101956.34;;;7.36;56.29
70833;BME280;58452;59.418;17.962;2023-05-11T03:03:50;101951.19;;;7.36;56.56
70833;BME280;58452;59.418;17.962;2023-05-11T03:06:15;101950.56;;;7.32;56.52
70833;BME280;58452;59.418;17.962;2023-05-11T03:08:41;101957.44;;;7.32;56.71
70833;BME280;58452;59.418;17.962;2023-05-11T03:11:08;101961.84;;;7.30;56.83
70833;BME280;58452;59.418;17.962;2023-05-11T03:13:33;101960.38;;;7.26;57.36
70833;BME280;58452;59.418;17.962;2023-05-11T03:16:00;101951.53;;;7.16;57.41
70833;BME280;58452;59.418;17.962;2023-05-11T03:18:27;101963.00;;;7.24;57.41
70833;BME280;58452;59.418;17.962;2023-05-11T03:20:54;101960.38;;;7.26;57.09
70833;BME280;58452;59.418;17.962;2023-05-11T03:23:21;101962.94;;;7.26;57.41
70833;BME280;58452;59.418;17.962;2023-05-11T03:25:46;101956.16;;;7.25;57.27
70833;BME280;58452;59.418;17.962;2023-05-11T03:28:13;101960.19;;;7.29;57.34
70833;BME280;58452;59.418;17.962;2023-05-11T03:30:39;101961.84;;;7.30;57.76
70833;BME280;58452;59.418;17.962;2023-05-11T03:33:06;101959.34;;;7.28;57.76
70833;BME280;58452;59.418;17.962;2023-05-11T03:35:33;101966.88;;;7.31;57.71
70833;BME280;58452;59.418;17.962;2023-05-11T03:38:01;101950.09;;;7.26;57.99
70833;BME280;58452;59.418;17.962;2023-05-11T03:40:28;101952.28;;;7.32;58.25
70833;BME280;58452;59.418;17.962;2023-05-11T03:42:56;101963.13;;;7.37;58.02
70833;BME280;58452;59.418;17.962;2023-05-11T03:45:22;101960.66;;;7.35;58.23
70833;BME280;58452;59.418;17.962;2023-05-11T03:47:50;101972.13;;;7.44;58.44
70833;BME280;58452;59.418;17.962;2023-05-11T03:50:16;101964.22;;;7.47;58.75
70833;BME280;58452;59.418;17.962;2023-05-11T03:52:42;101975.97;;;7.51;58.64
70833;BME280;58452;59.418;17.962;2023-05-11T03:55:08;101972.13;;;7.58;58.70
70833;BME280;58452;59.418;17.962;2023-05-11T03:57:34;101975.41;;;7.60;58.71
70833;BME280;58452;59.418;17.962;2023-05-11T04:00:00;101977.72;;;7.65;58.89
70833;BME280;58452;59.418;17.962;2023-05-11T04:02:25;101971.75;;;7.64;59.49
70833;BME280;58452;59.418;17.962;2023-05-11T04:04:51;101963.13;;;7.65;59.39
70833;BME280;58452;59.418;17.962;2023-05-11T04:07:17;101968.25;;;7.79;59.10
70833;BME280;58452;59.418;17.962;2023-05-11T04:09:43;101962.63;;;7.87;58.86
70833;BME280;58452;59.418;17.962;2023-05-11T04:12:08;101964.63;;;7.96;58.99
70833;BME280;58452;59.418;17.962;2023-05-11T04:14:34;101959.13;;;8.02;59.01
70833;BME280;58452;59.418;17.962;2023-05-11T04:16:59;101960.94;;;8.14;58.83
70833;BME280;58452;59.418;17.962;2023-05-11T04:19:25;101966.31;;;8.24;58.56
70833;BME280;58452;59.418;17.962;2023-05-11T04:21:51;101962.41;;;8.32;58.23
70833;BME280;58452;59.418;17.962;2023-05-11T04:24:16;101956.38;;;8.46;59.03
70833;BME280;58452;59.418;17.962;2023-05-11T04:26:41;101958.34;;;8.55;57.91
70833;BME280;58452;59.418;17.962;2023-05-11T04:29:07;101958.38;;;8.68;57.51
70833;BME280;58452;59.418;17.962;2023-05-11T04:31:32;101957.69;;;8.78;56.99
70833;BME280;58452;59.418;17.962;2023-05-11T04:33:58;101963.66;;;8.92;56.69
70833;BME280;58452;59.418;17.962;2023-05-11T04:36:23;101965.09;;;8.96;56.44
70833;BME280;58452;59.418;17.962;2023-05-11T04:38:49;101965.97;;;9.09;56.05
70833;BME280;58452;59.418;17.962;2023-05-11T04:41:14;101961.53;;;9.23;55.50
70833;BME280;58452;59.418;17.962;2023-05-11T04:43:40;101951.72;;;9.28;55.53
70833;BME280;58452;59.418;17.962;2023-05-11T04:46:05;101962.16;;;9.52;53.90
70833;BME280;58452;59.418;17.962;2023-05-11T04:48:30;101965.53;;;9.65;53.38
70833;BME280;58452;59.418;17.962;2023-05-11T04:50:56;101950.34;;;9.73;52.98
70833;BME280;58452;59.418;17.962;2023-05-11T04:53:22;101956.09;;;9.90;52.43
70833;BME280;58452;59.418;17.962;2023-05-11T04:55:47;101959.47;;;10.03;51.51
70833;BME280;58452;59.418;17.962;2023-05-11T04:58:13;101946.63;;;10.14;51.23
70833;BME280;58452;59.418;17.962;2023-05-11T05:00:39;101961.66;;;10.33;51.01
70833;BME280;58452;59.418;17.962;2023-05-11T05:03:04;101943.03;;;10.40;50.28
70833;BME280;58452;59.418;17.962;2023-05-11T05:05:30;101956.97;;;10.61;50.04
70833;BME280;58452;59.418;17.962;2023-05-11T05:07:55;101957.94;;;10.71;49.12
70833;BME280;58452;59.418;17.962;2023-05-11T05:10:20;101962.69;;;10.89;48.96
70833;BME280;58452;59.418;17.962;2023-05-11T05:12:46;101971.16;;;11.02;48.48
70833;BME280;58452;59.418;17.962;2023-05-11T05:15:12;101966.03;;;11.13;48.59
70833;BME280;58452;59.418;17.962;2023-05-11T05:17:38;101971.56;;;11.31;48.11
70833;BME280;58452;59.418;17.962;2023-05-11T05:20:04;101978.16;;;11.46;48.15
70833;BME280;58452;59.418;17.962;2023-05-11T05:22:29;101973.47;;;11.62;47.11
70833;BME280;58452;59.418;17.962;2023-05-11T05:24:56;101979.25;;;11.77;46.30
70833;BME280;58452;59.418;17.962;2023-05-11T05:27:21;101975.00;;;11.87;46.66
70833;BME280;58452;59.418;17.962;2023-05-11T05:29:47;101974.88;;;11.99;46.64
70833;BME280;58452;59.418;17.962;2023-05-11T05:32:12;101978.03;;;12.14;46.40
70833;BME280;58452;59.418;17.962;2023-05-11T05:34:37;101969.75;;;12.31;45.41
70833;BME280;58452;59.418;17.962;2023-05-11T05:37:03;101973.44;;;12.49;45.08
70833;BME280;58452;59.418;17.962;2023-05-11T05:39:28;101971.75;;;12.59;45.40
70833;BME280;58452;59.418;17.962;2023-05-11T05:41:54;101968.41;;;12.68;45.19
70833;BME280;58452;59.418;17.962;2023-05-11T05:44:19;101971.78;;;12.80;44.52
70833;BME280;58452;59.418;17.962;2023-05-11T05:46:45;101982.88;;;12.92;43.85
70833;BME280;58452;59.418;17.962;2023-05-11T05:49:10;101976.44;;;13.07;43.40
70833;BME280;58452;59.418;17.962;2023-05-11T05:51:36;101971.25;;;13.07;43.57
70833;BME280;58452;59.418;17.962;2023-05-11T05:54:01;101970.00;;;13.22;43.56
70833;BME280;58452;59.418;17.962;2023-05-11T05:56:26;101977.94;;;13.51;42.60
70833;BME280;58452;59.418;17.962;2023-05-11T05:58:52;101972.53;;;13.63;42.98
70833;BME280;58452;59.418;17.962;2023-05-11T06:01:17;101981.25;;;13.62;42.07
70833;BME280;58452;59.418;17.962;2023-05-11T06:03:43;101966.53;;;13.73;42.17
70833;BME280;58452;59.418;17.962;2023-05-11T06:06:11;101973.44;;;13.93;42.30
70833;BME280;58452;59.418;17.962;2023-05-11T06:08:37;101969.25;;;14.11;41.62
70833;BME280;58452;59.418;17.962;2023-05-11T06:11:02;101973.22;;;14.25;41.20
70833;BME280;58452;59.418;17.962;2023-05-11T06:13:28;101964.75;;;14.32;40.70
70833;BME280;58452;59.418;17.962;2023-05-11T06:15:53;101976.97;;;14.51;40.90
70833;BME280;58452;59.418;17.962;2023-05-11T06:18:18;101970.53;;;14.64;41.16
70833;BME280;58452;59.418;17.962;2023-05-11T06:20:44;101977.19;;;14.86;39.24
70833;BME280;58452;59.418;17.962;2023-05-11T06:23:09;101977.09;;;14.68;39.18
70833;BME280;58452;59.418;17.962;2023-05-11T06:25:35;101974.19;;;14.72;39.52
70833;BME280;58452;59.418;17.962;2023-05-11T06:28:00;101971.19;;;14.76;39.69
70833;BME280;58452;59.418;17.962;2023-05-11T06:30:26;101975.41;;;14.87;39.27
70833;BME280;58452;59.418;17.962;2023-05-11T06:32:52;101972.13;;;15.04;38.53
70833;BME280;58452;59.418;17.962;2023-05-11T06:35:17;101981.13;;;15.09;38.52
70833;BME280;58452;59.418;17.962;2023-05-11T06:37:43;101982.19;;;15.26;39.06
70833;BME280;58452;59.418;17.962;2023-05-11T06:40:08;101987.91;;;15.39;38.05
70833;BME280;58452;59.418;17.962;2023-05-11T06:42:34;101985.69;;;15.44;39.23
70833;BME280;58452;59.418;17.962;2023-05-11T06:45:00;101990.19;;;15.61;37.71
70833;BME280;58452;59.418;17.962;2023-05-11T06:47:25;101989.56;;;15.77;37.80
70833;BME280;58452;59.418;17.962;2023-05-11T06:49:51;101988.84;;;15.85;38.30
70833;BME280;58452;59.418;17.962;2023-05-11T06:52:16;101995.78;;;15.67;37.06
70833;BME280;58452;59.418;17.962;2023-05-11T06:54:42;101980.72;;;15.60;37.31
70833;BME280;58452;59.418;17.962;2023-05-11T06:57:07;101986.59;;;15.90;37.01
70833;BME280;58452;59.418;17.962;2023-05-11T06:59:33;101987.63;;;16.06;37.54
70833;BME280;58452;59.418;17.962;2023-05-11T07:01:58;101977.34;;;16.23;36.88
70833;BME280;58452;59.418;17.962;2023-05-11T07:04:24;101981.25;;;16.36;35.88
70833;BME280;58452;59.418;17.962;2023-05-11T07:06:49;101988.16;;;16.28;36.45
70833;BME280;58452;59.418;17.962;2023-05-11T07:09:15;101990.31;;;16.32;37.35
70833;BME280;58452;59.418;17.962;2023-05-11T07:11:40;101985.09;;;16.50;36.62
70833;BME280;58452;59.418;17.962;2023-05-11T07:14:06;101987.34;;;16.63;36.71
70833;BME280;58452;59.418;17.962;2023-05-11T07:16:33;101994.19;;;16.46;36.74
70833;BME280;58452;59.418;17.962;2023-05-11T07:19:03;101998.88;;;16.42;36.77
70833;BME280;58452;59.418;17.962;2023-05-11T07:21:28;101992.94;;;16.68;36.07
70833;BME280;58452;59.418;17.962;2023-05-11T07:23:54;101998.00;;;16.87;35.67
70833;BME280;58452;59.418;17.962;2023-05-11T07:26:19;102001.38;;;17.05;35.24
70833;BME280;58452;59.418;17.962;2023-05-11T07:28:46;101989.66;;;17.09;35.83
70833;BME280;58452;59.418;17.962;2023-05-11T07:31:11;101996.56;;;17.18;35.39
70833;BME280;58452;59.418;17.962;2023-05-11T07:33:37;101997.44;;;17.27;36.28
70833;BME280;58452;59.418;17.962;2023-05-11T07:36:03;102002.53;;;17.36;35.88
70833;BME280;58452;59.418;17.962;2023-05-11T07:38:29;101994.50;;;17.55;35.16
70833;BME280;58452;59.418;17.962;2023-05-11T07:40:54;102003.41;;;17.71;35.37
70833;BME280;58452;59.418;17.962;2023-05-11T07:43:20;102001.47;;;17.81;35.59
70833;BME280;58452;59.418;17.962;2023-05-11T07:45:45;102003.13;;;17.82;35.24
70833;BME280;58452;59.418;17.962;2023-05-11T07:48:10;102007.63;;;17.64;33.93
70833;BME280;58452;59.418;17.962;2023-05-11T07:50:36;101993.28;;;17.68;33.63
70833;BME280;58452;59.418;17.962;2023-05-11T07:53:02;101995.09;;;17.75;34.63
70833;BME280;58452;59.418;17.962;2023-05-11T07:55:27;102006.41;;;17.92;35.15
70833;BME280;58452;59.418;17.962;2023-05-11T07:57:54;102005.16;;;18.04;35.30
70833;BME280;58452;59.418;17.962;2023-05-11T08:00:20;102012.28;;;17.86;33.54
70833;BME280;58452;59.418;17.962;2023-05-11T08:02:46;102005.44;;;17.93;33.13
70833;BME280;58452;59.418;17.962;2023-05-11T08:05:12;101996.44;;;17.87;34.13
70833;BME280;58452;59.418;17.962;2023-05-11T08:07:38;102002.88;;;18.01;34.83
70833;BME280;58452;59.418;17.962;2023-05-11T08:10:03;102010.41;;;18.20;34.33
70833;BME280;58452;59.418;17.962;2023-05-11T08:12:29;102009.16;;;18.40;34.47
70833;BME280;58452;59.418;17.962;2023-05-11T08:14:54;102004.94;;;18.56;33.20
70833;BME280;58452;59.418;17.962;2023-05-11T08:17:20;102011.28;;;18.53;32.32
70833;BME280;58452;59.418;17.962;2023-05-11T08:19:45;102017.69;;;18.59;31.64
70833;BME280;58452;59.418;17.962;2023-05-11T08:22:11;102016.06;;;18.74;31.07
70833;BME280;58452;59.418;17.962;2023-05-11T08:24:36;102023.59;;;18.93;30.62
70833;BME280;58452;59.418;17.962;2023-05-11T08:27:02;102015.75;;;18.93;29.94
70833;BME280;58452;59.418;17.962;2023-05-11T08:29:27;102020.94;;;19.01;30.41
70833;BME280;58452;59.418;17.962;2023-05-11T08:31:53;102019.00;;;18.95;29.83
70833;BME280;58452;59.418;17.962;2023-05-11T08:34:18;102016.38;;;18.95;30.33
70833;BME280;58452;59.418;17.962;2023-05-11T08:36:44;102016.38;;;19.11;30.10
70833;BME280;58452;59.418;17.962;2023-05-11T08:39:10;102030.09;;;18.97;29.25
70833;BME280;58452;59.418;17.962;2023-05-11T08:41:35;102019.81;;;18.71;29.90
70833;BME280;58452;59.418;17.962;2023-05-11T08:44:01;102025.53;;;18.91;30.22
70833;BME280;58452;59.418;17.962;2023-05-11T08:46:29;102029.13;;;19.06;30.52
70833;BME280;58452;59.418;17.962;2023-05-11T08:48:56;102020.94;;;19.01;30.71
70833;BME280;58452;59.418;17.962;2023-05-11T08:51:22;102031.25;;;19.11;30.54
70833;BME280;58452;59.418;17.962;2023-05-11T08:53:48;102015.22;;;19.14;29.68
70833;BME280;58452;59.418;17.962;2023-05-11T08:56:15;102031.59;;;19.08;29.88
70833;BME280;58452;59.418;17.962;2023-05-11T08:58:41;102025.19;;;19.02;29.68
70833;BME280;58452;59.418;17.962;2023-05-11T09:01:09;102022.56;;;19.18;29.71
70833;BME280;58452;59.418;17.962;2023-05-11T09:03:38;102017.94;;;19.36;30.75
70833;BME280;58452;59.418;17.962;2023-05-11T09:06:06;102030.66;;;19.56;29.03
70833;BME280;58452;59.418;17.962;2023-05-11T09:08:34;102032.66;;;19.37;30.21
70833;BME280;58452;59.418;17.962;2023-05-11T09:11:02;102022.03;;;19.31;29.28
70833;BME280;58452;59.418;17.962;2023-05-11T09:13:29;102029.69;;;19.57;28.69
70833;BME280;58452;59.418;17.962;2023-05-11T09:15:56;102026.41;;;19.63;28.34
70833;BME280;58452;59.418;17.962;2023-05-11T09:18:21;102030.75;;;19.78;28.86
70833;BME280;58452;59.418;17.962;2023-05-11T09:20:48;102027.13;;;19.87;26.78
70833;BME280;58452;59.418;17.962;2023-05-11T09:23:15;102021.16;;;20.02;27.45
70833;BME280;58452;59.418;17.962;2023-05-11T09:25:41;102031.16;;;19.98;28.00
70833;BME280;58452;59.418;17.962;2023-05-11T09:28:10;102024.88;;;20.07;26.41
70833;BME280;58452;59.418;17.962;2023-05-11T09:30:36;102026.44;;;20.24;27.09
70833;BME280;58452;59.418;17.962;2023-05-11T09:33:01;102026.09;;;20.27;27.12
70833;BME280;58452;59.418;17.962;2023-05-11T09:35:32;102036.56;;;19.66;28.96
70833;BME280;58452;59.418;17.962;2023-05-11T09:38:07;102033.78;;;19.98;26.45
70833;BME280;58452;59.418;17.962;2023-05-11T09:40:54;102035.66;;;20.20;27.18
70833;BME280;58452;59.418;17.962;2023-05-11T09:43:29;102040.66;;;19.52;27.96
70833;BME280;58452;59.418;17.962;2023-05-11T09:45:56;102039.47;;;19.71;27.23
70833;BME280;58452;59.418;17.962;2023-05-11T09:48:27;102019.13;;;19.81;26.72
70833;BME280;58452;59.418;17.962;2023-05-11T09:53:46;102030.50;;;20.27;26.25
70833;BME280;58452;59.418;17.962;2023-05-11T09:56:12;102031.03;;;20.22;25.91
70833;BME280;58452;59.418;17.962;2023-05-11T09:58:48;102034.34;;;20.16;28.02
70833;BME280;58452;59.418;17.962;2023-05-11T10:01:15;102037.91;;;20.23;26.12
70833;BME280;58452;59.418;17.962;2023-05-11T10:03:49;102030.44;;;20.43;25.50
70833;BME280;58452;59.418;17.962;2023-05-11T10:06:15;102036.53;;;20.43;26.24
70833;BME280;58452;59.418;17.962;2023-05-11T10:08:42;102035.88;;;19.64;26.10
70833;BME280;58452;59.418;17.962;2023-05-11T10:11:08;102032.81;;;19.99;26.08
70833;BME280;58452;59.418;17.962;2023-05-11T10:13:36;102023.38;;;19.82;26.31
70833;BME280;58452;59.418;17.962;2023-05-11T10:16:02;102027.13;;;20.18;26.57
70833;BME280;58452;59.418;17.962;2023-05-11T10:18:32;102011.06;;;20.21;25.66
70833;BME280;58452;59.418;17.962;2023-05-11T10:20:58;102028.69;;;20.35;26.11
70833;BME280;58452;59.418;17.962;2023-05-11T10:23:24;102029.38;;;20.29;25.87
70833;BME280;58452;59.418;17.962;2023-05-11T10:25:51;102022.78;;;20.33;25.46
70833;BME280;58452;59.418;17.962;2023-05-11T10:28:18;102013.13;;;19.64;27.34
70833;BME280;58452;59.418;17.962;2023-05-11T10:30:45;102017.41;;;19.96;26.30
70833;BME280;58452;59.418;17.962;2023-05-11T10:33:12;102033.28;;;20.25;25.75
70833;BME280;58452;59.418;17.962;2023-05-11T10:35:37;102024.09;;;20.07;25.93
70833;BME280;58452;59.418;17.962;2023-05-11T10:38:03;102019.06;;;20.28;26.54
70833;BME280;58452;59.418;17.962;2023-05-11T10:40:35;102021.03;;;19.95;27.06
70833;BME280;58452;59.418;17.962;2023-05-11T10:43:20;102013.47;;;19.69;26.28
70833;BME280;58452;59.418;17.962;2023-05-11T10:46:36;102020.53;;;19.99;28.39
70833;BME280;58452;59.418;17.962;2023-05-11T11:02:02;102017.09;;;20.75;25.08
70833;BME280;58452;59.418;17.962;2023-05-11T11:04:45;102017.72;;;20.77;26.60
70833;BME280;58452;59.418;17.962;2023-05-11T11:07:11;102016.22;;;20.98;26.80
70833;BME280;58452;59.418;17.962;2023-05-11T11:09:58;102024.25;;;21.33;25.43
70833;BME280;58452;59.418;17.962;2023-05-11T11:12:26;102021.00;;;20.79;27.40
70833;BME280;58452;59.418;17.962;2023-05-11T11:15:00;102018.63;;;20.84;24.61
70833;BME280;58452;59.418;17.962;2023-05-11T11:17:28;102019.53;;;21.14;24.43
70833;BME280;58452;59.418;17.962;2023-05-11T11:19:57;102027.81;;;21.03;24.89
70833;BME280;58452;59.418;17.962;2023-05-11T11:25:04;102034.59;;;20.60;26.19
70833;BME280;58452;59.418;17.962;2023-05-11T11:30:22;102037.09;;;21.28;23.81
70833;BME280;58452;59.418;17.962;2023-05-11T11:32:50;102042.63;;;21.19;23.95
70833;BME280;58452;59.418;17.962;2023-05-11T11:38:04;102038.19;;;21.19;24.97
70833;BME280;58452;59.418;17.962;2023-05-11T11:43:21;102039.66;;;20.99;24.61
70833;BME280;58452;59.418;17.962;2023-05-11T11:48:32;102038.66;;;21.23;23.88
70833;BME280;58452;59.418;17.962;2023-05-11T11:51:11;102043.28;;;21.50;23.74
70833;BME280;58452;59.418;17.962;2023-05-11T11:56:03;102041.22;;;21.46;23.74
70833;BME280;58452;59.418;17.962;2023-05-11T12:01:13;102041.38;;;21.44;24.53
70833;BME280;58452;59.418;17.962;2023-05-11T12:03:40;102047.91;;;20.96;24.29
70833;BME280;58452;59.418;17.962;2023-05-11T12:06:07;102055.06;;;21.39;23.34
70833;BME280;58452;59.418;17.962;2023-05-11T12:08:34;102035.84;;;21.39;23.06
70833;BME280;58452;59.418;17.962;2023-05-11T12:11:00;102069.38;;;21.37;24.46
70833;BME280;58452;59.418;17.962;2023-05-11T12:13:26;102059.31;;;21.03;23.77
70833;BME280;58452;59.418;17.962;2023-05-11T12:16:11;102054.78;;;21.20;23.12
70833;BME280;58452;59.418;17.962;2023-05-11T12:18:38;102055.84;;;20.88;22.65
70833;BME280;58452;59.418;17.962;2023-05-11T12:21:03;102062.09;;;21.24;22.89
70833;BME280;58452;59.418;17.962;2023-05-11T12:23:29;102045.00;;;21.43;23.41
70833;BME280;58452;59.418;17.962;2023-05-11T12:26:02;102059.03;;;21.35;22.69
70833;BME280;58452;59.418;17.962;2023-05-11T12:28:27;102056.78;;;21.32;22.68
70833;BME280;58452;59.418;17.962;2023-05-11T12:30:54;102061.41;;;21.30;21.73
70833;BME280;58452;59.418;17.962;2023-05-11T12:33:20;102053.88;;;20.90;24.47
70833;BME280;58452;59.418;17.962;2023-05-11T12:35:50;102067.00;;;20.67;23.18
70833;BME280;58452;59.418;17.962;2023-05-11T12:38:16;102071.66;;;20.26;22.66
70833;BME280;58452;59.418;17.962;2023-05-11T12:40:49;102061.09;;;20.42;22.98
70833;BME280;58452;59.418;17.962;2023-05-11T12:43:20;102050.06;;;20.16;22.66
70833;BME280;58452;59.418;17.962;2023-05-11T12:45:46;102072.41;;;20.66;22.69
70833;BME280;58452;59.418;17.962;2023-05-11T12:48:12;102062.38;;;20.92;23.30
70833;BME280;58452;59.418;17.962;2023-05-11T12:50:41;102054.31;;;21.16;24.35
70833;BME280;58452;59.418;17.962;2023-05-11T12:53:17;102065.00;;;21.29;22.51
70833;BME280;58452;59.418;17.962;2023-05-11T12:55:43;102060.84;;;21.20;22.24
70833;BME280;58452;59.418;17.962;2023-05-11T12:58:11;102060.34;;;21.02;22.49
70833;BME280;58452;59.418;17.962;2023-05-11T13:00:49;102058.84;;;21.22;23.49
70833;BME280;58452;59.418;17.962;2023-05-11T13:03:20;102057.44;;;21.34;22.88
70833;BME280;58452;59.418;17.962;2023-05-11T13:05:47;102050.25;;;21.43;22.71
70833;BME280;58452;59.418;17.962;2023-05-11T13:08:12;102046.19;;;21.40;22.86
70833;BME280;58452;59.418;17.962;2023-05-11T13:10:38;102051.06;;;21.43;22.05
70833;BME280;58452;59.418;17.962;2023-05-11T13:13:04;102054.72;;;21.42;22.35
70833;BME280;58452;59.418;17.962;2023-05-11T13:15:30;102067.25;;;21.18;24.62
70833;BME280;58452;59.418;17.962;2023-05-11T13:18:00;102043.03;;;21.45;24.20
70833;BME280;58452;59.418;17.962;2023-05-11T13:25:31;102055.03;;;21.25;22.97
70833;BME280;58452;59.418;17.962;2023-05-11T13:27:57;102051.03;;;20.91;22.55
70833;BME280;58452;59.418;17.962;2023-05-11T13:30:23;102046.66;;;20.46;23.37
70833;BME280;58452;59.418;17.962;2023-05-11T13:32:48;102039.13;;;21.04;23.07